Time;durP1;ratioP1;P1;durP2;ratioP2;P2;SDS_P1;SDS_P2;PMS_P1;PMS_P2;Temp;Humidity;BMP_temperature;BMP_pressure;BME280_temperature;BME280_humidity;BME280_pressure;Samples;Min_cycle;Max_cycle;Signal;HPM_P1;HPM_P2
2021/07/18 00:00:44;;;;;;;8.40;2.00;;;;;;;;;;4987525;28;20133;-76
2021/07/18 00:03:11;;;;;;;8.77;1.95;;;;;;;;;;4968500;28;20764;-76
2021/07/18 00:05:39;;;;;;;12.43;2.28;;;;;;;;;;4982926;28;20038;-76
2021/07/18 00:08:07;;;;;;;6.57;2.42;;;;;;;;;;4983314;28;20133;-76
2021/07/18 00:10:34;;;;;;;7.25;2.25;;;;;;;;;;4981212;28;20138;-76
2021/07/18 00:13:02;;;;;;;10.20;2.15;;;;;;;;;;4985581;28;20738;-76
2021/07/18 00:15:30;;;;;;;6.45;2.00;;;;;;;;;;4971940;28;20084;-76
2021/07/18 00:17:57;;;;;;;7.03;2.45;;;;;;;;;;4974360;28;20101;-76
2021/07/18 00:20:24;;;;;;;9.57;1.75;;;;;;;;;;4986897;28;20858;-76
2021/07/18 00:22:53;;;;;;;9.25;2.33;;;;;;;;;;4985836;28;20654;-76
2021/07/18 00:25:20;;;;;;;4.28;1.98;;;;;;;;;;4987162;28;20140;-77
2021/07/18 00:27:48;;;;;;;17.27;2.92;;;;;;;;;;4968504;28;20086;-77
2021/07/18 00:30:15;;;;;;;9.77;2.15;;;;;;;;;;4968451;28;20475;-77
2021/07/18 00:32:43;;;;;;;7.93;2.08;;;;;;;;;;4975188;28;20161;-77
2021/07/18 00:35:11;;;;;;;3.20;2.08;;;;;;;;;;4968060;28;20126;-76
2021/07/18 00:37:38;;;;;;;6.22;2.30;;;;;;;;;;4986074;28;20046;-76
2021/07/18 00:40:06;;;;;;;4.82;2.10;;;;;;;;;;4984677;28;20149;-76
2021/07/18 00:42:33;;;;;;;6.28;2.30;;;;;;;;;;4973540;28;20093;-76
2021/07/18 00:45:00;;;;;;;6.80;2.38;;;;;;;;;;4978253;28;20109;-76
2021/07/18 00:47:30;;;;;;;7.07;2.50;;;;;;;;;;4970652;28;20138;-76
2021/07/18 00:49:58;;;;;;;7.22;2.55;;;;;;;;;;4975859;28;20114;-76
2021/07/18 00:52:25;;;;;;;7.90;3.00;;;;;;;;;;4984161;28;20042;-77
2021/07/18 00:54:52;;;;;;;4.63;2.40;;;;;;;;;;4985490;28;20134;-76
2021/07/18 00:57:19;;;;;;;5.60;2.25;;;;;;;;;;4978785;28;20153;-76
2021/07/18 00:59:47;;;;;;;8.57;2.80;;;;;;;;;;4972100;28;20193;-77
2021/07/18 01:02:14;;;;;;;9.10;2.50;;;;;;;;;;4969731;28;20141;-77
2021/07/18 01:04:41;;;;;;;10.20;2.58;;;;;;;;;;4982467;28;20739;-76
2021/07/18 01:07:09;;;;;;;8.02;2.53;;;;;;;;;;4986952;28;20133;-77
2021/07/18 01:09:36;;;;;;;11.05;3.17;;;;;;;;;;4984366;28;21956;-77
2021/07/18 01:12:04;;;;;;;9.07;2.97;;;;;;;;;;4978028;28;20042;-76
2021/07/18 01:14:31;;;;;;;12.88;2.90;;;;;;;;;;4986448;28;20050;-77
2021/07/18 01:16:59;;;;;;;9.05;2.67;;;;;;;;;;4970644;28;20125;-77
2021/07/18 01:19:29;;;;;;;6.10;2.72;;;;;;;;;;4966920;28;20063;-77
2021/07/18 01:21:58;;;;;;;7.20;2.15;;;;;;;;;;4983124;28;20090;-76
2021/07/18 01:24:26;;;;;;;10.52;2.80;;;;;;;;;;4970170;28;20439;-76
2021/07/18 01:26:55;;;;;;;3.65;2.22;;;;;;;;;;4984645;28;20542;-76
2021/07/18 01:29:23;;;;;;;9.50;2.75;;;;;;;;;;4967033;28;20134;-77
2021/07/18 01:31:50;;;;;;;11.55;2.50;;;;;;;;;;4979871;28;20130;-77
2021/07/18 01:34:18;;;;;;;10.48;4.10;;;;;;;;;;4969078;28;20130;-76
2021/07/18 01:36:46;;;;;;;9.45;2.85;;;;;;;;;;4979304;28;20125;-77
2021/07/18 01:39:14;;;;;;;8.65;2.60;;;;;;;;;;4976559;28;20138;-77
2021/07/18 01:41:42;;;;;;;13.13;4.18;;;;;;;;;;4968500;28;20605;-77
2021/07/18 01:44:09;;;;;;;9.98;2.42;;;;;;;;;;4967300;28;20086;-77
2021/07/18 01:46:37;;;;;;;11.48;2.92;;;;;;;;;;4985668;28;20563;-77
2021/07/18 01:49:06;;;;;;;8.52;2.50;;;;;;;;;;4970870;28;20109;-77
2021/07/18 01:51:34;;;;;;;5.25;2.47;;;;;;;;;;4971207;28;20055;-77
2021/07/18 01:54:02;;;;;;;8.73;3.05;;;;;;;;;;4970132;28;20065;-77
2021/07/18 01:56:30;;;;;;;8.45;2.80;;;;;;;;;;4989003;28;20246;-76
2021/07/18 01:58:58;;;;;;;9.48;3.03;;;;;;;;;;4988656;28;20061;-76
2021/07/18 02:01:30;;;;;;;17.52;3.05;;;;;;;;;;4977830;28;20086;-76
2021/07/18 02:03:58;;;;;;;6.95;3.03;;;;;;;;;;4972027;28;20681;-76
2021/07/18 02:06:26;;;;;;;7.85;3.13;;;;;;;;;;4989499;28;20137;-76
2021/07/18 02:08:54;;;;;;;12.70;2.70;;;;;;;;;;4967827;28;20054;-77
2021/07/18 02:11:22;;;;;;;7.82;2.42;;;;;;;;;;4968661;28;20178;-77
2021/07/18 02:13:54;;;;;;;8.70;2.95;;;;;;;;;;4971099;28;20492;-76
2021/07/18 02:16:22;;;;;;;8.25;2.28;;;;;;;;;;4980617;28;20051;-76
2021/07/18 02:18:50;;;;;;;9.05;2.75;;;;;;;;;;4989984;28;20048;-76
2021/07/18 02:21:19;;;;;;;5.32;2.40;;;;;;;;;;4988773;28;20094;-76
2021/07/18 02:23:47;;;;;;;7.68;2.72;;;;;;;;;;4990679;28;20054;-77
2021/07/18 02:26:15;;;;;;;5.97;2.42;;;;;;;;;;4988795;28;20042;-76
2021/07/18 02:28:42;;;;;;;12.02;2.88;;;;;;;;;;4980643;28;20138;-77
2021/07/18 02:31:09;;;;;;;9.60;3.35;;;;;;;;;;4971601;28;20142;-77
2021/07/18 02:33:36;;;;;;;8.93;2.97;;;;;;;;;;4987826;28;20506;-76
2021/07/18 02:36:04;;;;;;;6.72;2.75;;;;;;;;;;4987795;28;20450;-76
2021/07/18 02:38:32;;;;;;;9.43;2.47;;;;;;;;;;4977838;28;20053;-77
2021/07/18 02:40:59;;;;;;;16.35;3.33;;;;;;;;;;4984825;28;20126;-76
2021/07/18 02:43:26;;;;;;;9.00;3.00;;;;;;;;;;4978939;28;20065;-76
2021/07/18 02:45:53;;;;;;;10.10;3.63;;;;;;;;;;4988991;28;20704;-76
2021/07/18 02:48:21;;;;;;;10.32;3.60;;;;;;;;;;4986456;28;20086;-76
2021/07/18 02:50:48;;;;;;;9.00;3.33;;;;;;;;;;4986800;28;20693;-76
2021/07/18 02:53:15;;;;;;;8.90;3.50;;;;;;;;;;4979712;28;20161;-76
2021/07/18 02:55:43;;;;;;;11.38;3.42;;;;;;;;;;4986593;28;20149;-76
2021/07/18 02:58:10;;;;;;;10.57;3.05;;;;;;;;;;4968103;28;20157;-76
2021/07/18 03:00:37;;;;;;;8.55;3.45;;;;;;;;;;4977483;28;20131;-76
2021/07/18 03:03:05;;;;;;;13.02;3.17;;;;;;;;;;4975293;28;20082;-77
2021/07/18 03:05:32;;;;;;;12.43;3.55;;;;;;;;;;4988452;28;20165;-76
2021/07/18 03:08:00;;;;;;;9.15;2.67;;;;;;;;;;4985744;28;20427;-76
2021/07/18 03:10:27;;;;;;;11.88;3.25;;;;;;;;;;4986512;28;20144;-77
2021/07/18 03:12:54;;;;;;;15.50;3.83;;;;;;;;;;4989067;28;20170;-77
2021/07/18 03:15:21;;;;;;;9.15;3.35;;;;;;;;;;4989356;28;20051;-77
2021/07/18 03:17:49;;;;;;;7.10;2.80;;;;;;;;;;4972092;28;20736;-77
2021/07/18 03:20:17;;;;;;;12.95;3.35;;;;;;;;;;4981666;28;20133;-77
2021/07/18 03:22:44;;;;;;;11.25;3.22;;;;;;;;;;4975129;28;20141;-77
2021/07/18 03:25:12;;;;;;;12.85;3.33;;;;;;;;;;4985562;28;20133;-77
2021/07/18 03:27:40;;;;;;;12.20;3.38;;;;;;;;;;4986042;28;20096;-77
2021/07/18 03:30:08;;;;;;;11.35;2.70;;;;;;;;;;4986765;28;20133;-77
2021/07/18 03:32:36;;;;;;;6.65;2.90;;;;;;;;;;4986810;28;20141;-77
2021/07/18 03:35:04;;;;;;;14.25;3.30;;;;;;;;;;4986174;28;20048;-77
2021/07/18 03:37:35;;;;;;;5.53;3.17;;;;;;;;;;4984770;28;20062;-77
2021/07/18 03:40:03;;;;;;;8.60;3.00;;;;;;;;;;4987208;28;20053;-77
2021/07/18 03:42:31;;;;;;;17.05;3.65;;;;;;;;;;4970711;28;20133;-77
2021/07/18 03:44:58;;;;;;;11.85;2.70;;;;;;;;;;4973424;28;20142;-77
2021/07/18 03:47:25;;;;;;;9.40;2.90;;;;;;;;;;4970426;28;20138;-77
2021/07/18 03:49:52;;;;;;;9.63;3.20;;;;;;;;;;4970594;28;20081;-77
2021/07/18 03:52:19;;;;;;;14.88;3.97;;;;;;;;;;4973738;28;20149;-77
2021/07/18 03:54:46;;;;;;;9.65;3.38;;;;;;;;;;4972229;28;20690;-77
2021/07/18 03:57:13;;;;;;;18.25;3.05;;;;;;;;;;4972310;28;20472;-77
2021/07/18 03:59:41;;;;;;;9.82;2.90;;;;;;;;;;4968520;28;20094;-77
2021/07/18 04:02:08;;;;;;;9.98;3.25;;;;;;;;;;4973352;28;20511;-77
2021/07/18 04:04:36;;;;;;;11.00;3.00;;;;;;;;;;4979368;28;20157;-77
2021/07/18 04:07:03;;;;;;;8.55;2.42;;;;;;;;;;4987561;28;20468;-77
2021/07/18 04:09:30;;;;;;;6.85;2.97;;;;;;;;;;4972310;28;20054;-77
2021/07/18 04:11:57;;;;;;;5.72;2.80;;;;;;;;;;4972275;28;20648;-77
2021/07/18 04:14:25;;;;;;;7.55;2.95;;;;;;;;;;4987979;28;20042;-77
2021/07/18 04:16:58;;;;;;;6.78;2.78;;;;;;;;;;4986724;28;20695;-77
2021/07/18 04:19:25;;;;;;;9.10;3.10;;;;;;;;;;4986242;28;20113;-77
2021/07/18 04:21:52;;;;;;;14.07;3.22;;;;;;;;;;4986597;28;20130;-77
2021/07/18 04:24:20;;;;;;;8.82;2.85;;;;;;;;;;4973335;28;20473;-77
2021/07/18 04:26:47;;;;;;;7.47;3.20;;;;;;;;;;4982969;28;20050;-77
2021/07/18 04:29:14;;;;;;;10.40;3.17;;;;;;;;;;4978543;28;20046;-77
2021/07/18 04:31:41;;;;;;;9.23;3.28;;;;;;;;;;4966673;28;20145;-77
2021/07/18 04:34:09;;;;;;;17.85;3.13;;;;;;;;;;4980067;28;20142;-77
2021/07/18 04:36:36;;;;;;;6.28;3.00;;;;;;;;;;4987365;28;20547;-77
2021/07/18 04:39:04;;;;;;;7.22;2.60;;;;;;;;;;4972187;28;20122;-77
2021/07/18 04:41:32;;;;;;;7.85;3.28;;;;;;;;;;4981471;28;20498;-77
2021/07/18 04:43:59;;;;;;;9.95;3.40;;;;;;;;;;4975704;28;20064;-77
2021/07/18 04:46:27;;;;;;;11.07;3.80;;;;;;;;;;4988559;28;20093;-77
2021/07/18 04:48:54;;;;;;;8.50;3.42;;;;;;;;;;4978212;28;20081;-77
2021/07/18 04:51:22;;;;;;;9.18;3.03;;;;;;;;;;4986874;28;20093;-77
2021/07/18 04:53:49;;;;;;;9.82;3.05;;;;;;;;;;4987951;28;20559;-77
2021/07/18 04:56:16;;;;;;;5.30;3.05;;;;;;;;;;4981931;28;20153;-77
2021/07/18 04:58:43;;;;;;;9.65;2.42;;;;;;;;;;4987868;28;20133;-77
2021/07/18 05:01:11;;;;;;;8.73;2.65;;;;;;;;;;4981063;28;20050;-77
2021/07/18 05:03:41;;;;;;;12.90;3.03;;;;;;;;;;4966952;28;20055;-77
2021/07/18 05:06:08;;;;;;;7.00;3.33;;;;;;;;;;4976406;28;20054;-77
2021/07/18 05:08:38;;;;;;;14.15;3.35;;;;;;;;;;4987557;28;20185;-77
2021/07/18 05:11:05;;;;;;;11.32;2.88;;;;;;;;;;4988404;28;20594;-77
2021/07/18 05:13:33;;;;;;;5.38;2.60;;;;;;;;;;4988319;28;20157;-78
2021/07/18 05:16:01;;;;;;;12.00;3.25;;;;;;;;;;4987499;28;20054;-77
2021/07/18 05:18:28;;;;;;;7.28;2.80;;;;;;;;;;4988004;28;20056;-77
2021/07/18 05:20:56;;;;;;;10.45;3.15;;;;;;;;;;4987190;28;20054;-77
2021/07/18 05:23:23;;;;;;;11.20;3.15;;;;;;;;;;4991953;28;20168;-77
2021/07/18 05:25:51;;;;;;;9.88;2.75;;;;;;;;;;4990281;28;20112;-77
2021/07/18 05:28:18;;;;;;;10.18;2.80;;;;;;;;;;4989521;28;20058;-77
2021/07/18 05:30:45;;;;;;;12.40;3.00;;;;;;;;;;4992541;28;20170;-77
2021/07/18 05:33:12;;;;;;;6.88;3.10;;;;;;;;;;4991122;28;20660;-77
2021/07/18 05:35:40;;;;;;;11.07;3.42;;;;;;;;;;4974724;28;20061;-77
2021/07/18 05:38:07;;;;;;;12.18;3.15;;;;;;;;;;4971625;28;20078;-77
2021/07/18 05:40:34;;;;;;;9.68;2.90;;;;;;;;;;4972029;28;20051;-77
2021/07/18 05:43:01;;;;;;;12.45;2.72;;;;;;;;;;4972046;28;20145;-77
2021/07/18 05:45:30;;;;;;;7.05;2.90;;;;;;;;;;4979961;28;20050;-77
2021/07/18 05:47:59;;;;;;;5.85;2.70;;;;;;;;;;4990665;28;20053;-77
2021/07/18 05:50:26;;;;;;;7.18;3.33;;;;;;;;;;5003835;28;20054;-76
2021/07/18 05:52:53;;;;;;;8.95;2.70;;;;;;;;;;4992841;28;20543;-76
2021/07/18 05:55:23;;;;;;;5.18;2.50;;;;;;;;;;4988140;28;20054;-76
2021/07/18 05:57:52;;;;;;;9.18;2.40;;;;;;;;;;4978015;28;20161;-76
2021/07/18 06:00:19;;;;;;;5.90;2.22;;;;;;;;;;4984632;28;20078;-76
2021/07/18 06:02:46;;;;;;;12.15;3.03;;;;;;;;;;4982753;28;20169;-77
2021/07/18 06:05:13;;;;;;;7.70;2.30;;;;;;;;;;4986897;28;20102;-77
2021/07/18 06:07:41;;;;;;;12.30;2.45;;;;;;;;;;4980174;28;20050;-76
2021/07/18 06:10:09;;;;;;;8.45;2.30;;;;;;;;;;4987587;28;20130;-78
2021/07/18 06:12:36;;;;;;;7.82;2.25;;;;;;;;;;4988825;28;20121;-78
2021/07/18 06:15:05;;;;;;;8.90;2.30;;;;;;;;;;4986221;28;20085;-78
2021/07/18 06:17:32;;;;;;;6.45;1.80;;;;;;;;;;4977251;28;20050;-78
2021/07/18 06:19:59;;;;;;;5.68;2.00;;;;;;;;;;4968842;28;20082;-78
2021/07/18 06:22:26;;;;;;;12.07;2.53;;;;;;;;;;4977588;28;20081;-78
2021/07/18 06:24:53;;;;;;;3.28;1.77;;;;;;;;;;4988214;28;20141;-78
2021/07/18 06:27:21;;;;;;;14.85;2.10;;;;;;;;;;4983104;28;20495;-78
2021/07/18 06:29:48;;;;;;;6.03;1.85;;;;;;;;;;5003163;28;20685;-78
2021/07/18 06:32:15;;;;;;;5.00;1.83;;;;;;;;;;4988611;28;20141;-78
2021/07/18 06:34:42;;;;;;;8.75;1.88;;;;;;;;;;4990721;28;20117;-78
2021/07/18 06:37:09;;;;;;;7.35;1.98;;;;;;;;;;4975564;28;20133;-77
2021/07/18 06:39:37;;;;;;;9.45;1.98;;;;;;;;;;4974768;28;20125;-77
2021/07/18 06:42:04;;;;;;;3.65;1.70;;;;;;;;;;4968850;28;20137;-77
2021/07/18 06:44:31;;;;;;;8.30;2.60;;;;;;;;;;4969575;28;20550;-76
2021/07/18 06:46:59;;;;;;;9.90;2.08;;;;;;;;;;4970191;28;20165;-76
2021/07/18 06:49:26;;;;;;;8.98;2.28;;;;;;;;;;4985115;28;20062;-79
2021/07/18 06:51:53;;;;;;;3.22;1.85;;;;;;;;;;4990879;28;20137;-79
2021/07/18 06:54:23;;;;;;;4.78;2.00;;;;;;;;;;4992458;28;20074;-80
2021/07/18 06:56:50;;;;;;;9.43;1.98;;;;;;;;;;4975329;28;20377;-79
2021/07/18 06:59:18;;;;;;;5.18;1.83;;;;;;;;;;4974856;28;20078;-80
2021/07/18 07:01:45;;;;;;;4.90;2.33;;;;;;;;;;4985222;28;20117;-81
2021/07/18 07:04:13;;;;;;;3.55;1.40;;;;;;;;;;4991416;28;20053;-80
2021/07/18 07:06:40;;;;;;;6.65;2.33;;;;;;;;;;4992487;28;20050;-80
2021/07/18 07:09:09;;;;;;;5.90;1.70;;;;;;;;;;4991578;28;20100;-80
2021/07/18 07:11:36;;;;;;;11.00;1.95;;;;;;;;;;4989774;28;20058;-78
2021/07/18 07:14:04;;;;;;;6.22;1.60;;;;;;;;;;4987929;28;20129;-77
2021/07/18 07:16:36;;;;;;;6.45;1.60;;;;;;;;;;4985117;28;20411;-79
2021/07/18 07:22:26;;;;;;;8.40;1.52;;;;;;;;;;4994549;28;20089;-80
2021/07/18 07:24:53;;;;;;;5.60;1.88;;;;;;;;;;4989810;28;20077;-78
2021/07/18 07:27:20;;;;;;;8.52;1.85;;;;;;;;;;4984365;28;20085;-79
2021/07/18 07:29:48;;;;;;;15.45;2.25;;;;;;;;;;4988732;28;20535;-79
2021/07/18 07:32:15;;;;;;;5.38;1.40;;;;;;;;;;4985007;28;20571;-80
2021/07/18 07:34:42;;;;;;;3.28;1.60;;;;;;;;;;4986773;28;20046;-77
2021/07/18 07:37:09;;;;;;;5.93;1.65;;;;;;;;;;4985055;28;20175;-77
2021/07/18 07:39:37;;;;;;;4.88;1.30;;;;;;;;;;4986140;28;20089;-77
2021/07/18 07:42:07;;;;;;;6.28;1.45;;;;;;;;;;4988812;28;20073;-77
2021/07/18 07:44:34;;;;;;;6.20;1.83;;;;;;;;;;4989045;28;20140;-77
2021/07/18 07:47:02;;;;;;;3.97;1.55;;;;;;;;;;4989328;28;20086;-79
2021/07/18 07:49:29;;;;;;;5.53;1.63;;;;;;;;;;4988807;28;20065;-78
2021/07/18 07:51:56;;;;;;;7.15;1.88;;;;;;;;;;4985478;28;20054;-79
2021/07/18 07:54:24;;;;;;;11.00;3.10;;;;;;;;;;4989392;28;20086;-78
2021/07/18 07:56:51;;;;;;;75.85;10.98;;;;;;;;;;4987177;28;20046;-77
2021/07/18 07:59:18;;;;;;;15.60;2.42;;;;;;;;;;4986841;28;20046;-78
2021/07/18 08:01:45;;;;;;;10.07;2.40;;;;;;;;;;4986265;28;20056;-77
2021/07/18 08:04:13;;;;;;;1999.90;288.15;;;;;;;;;;4986271;28;20522;-78
2021/07/18 08:06:40;;;;;;;11.82;2.75;;;;;;;;;;4987225;28;20154;-79
2021/07/18 08:09:07;;;;;;;7.68;2.55;;;;;;;;;;4987509;28;20130;-79
2021/07/18 08:11:34;;;;;;;4.68;1.65;;;;;;;;;;4985577;28;20053;-78
2021/07/18 08:14:03;;;;;;;23.63;3.55;;;;;;;;;;4987760;28;20054;-79
2021/07/18 08:16:31;;;;;;;5.32;1.60;;;;;;;;;;4987015;28;20104;-79
2021/07/18 08:18:58;;;;;;;6.40;1.98;;;;;;;;;;4985552;28;20627;-78
2021/07/18 08:21:25;;;;;;;37.38;4.95;;;;;;;;;;4986594;28;20045;-78
2021/07/18 08:24:06;;;;;;;9.45;1.70;;;;;;;;;;4985423;28;20589;-78
2021/07/18 08:26:34;;;;;;;21.83;4.05;;;;;;;;;;4986528;28;20868;-78
2021/07/18 08:29:02;;;;;;;18.65;2.60;;;;;;;;;;4980927;28;20050;-78
2021/07/18 08:31:29;;;;;;;5.72;1.88;;;;;;;;;;4967420;28;20086;-77
2021/07/18 08:33:56;;;;;;;10.90;1.85;;;;;;;;;;4982672;28;20051;-78
2021/07/18 08:36:24;;;;;;;3.28;1.23;;;;;;;;;;4967322;28;20051;-78
2021/07/18 08:38:51;;;;;;;5.50;1.48;;;;;;;;;;4984524;28;20137;-78
2021/07/18 08:41:21;;;;;;;4.40;1.60;;;;;;;;;;4985193;28;20194;-77
2021/07/18 08:43:49;;;;;;;6.72;1.35;;;;;;;;;;4984624;28;20050;-76
2021/07/18 08:46:18;;;;;;;2.22;1.40;;;;;;;;;;4986988;28;20133;-76
2021/07/18 08:48:46;;;;;;;9.07;1.58;;;;;;;;;;4968980;28;20086;-75
2021/07/18 08:51:14;;;;;;;2.25;1.52;;;;;;;;;;4965390;28;20054;-75
2021/07/18 08:53:42;;;;;;;31.17;5.22;;;;;;;;;;4966720;28;20133;-75
2021/07/18 08:56:10;;;;;;;62.83;7.85;;;;;;;;;;4966044;28;20511;-76
2021/07/18 08:58:40;;;;;;;50.38;4.50;;;;;;;;;;4978357;28;20161;-76
2021/07/18 09:01:07;;;;;;;29.33;3.15;;;;;;;;;;4985629;28;20054;-79
2021/07/18 09:03:35;;;;;;;49.17;5.88;;;;;;;;;;4985246;28;20443;-79
2021/07/18 09:06:08;;;;;;;5.65;1.42;;;;;;;;;;4982577;28;20132;-78
2021/07/18 09:08:44;;;;;;;6.68;1.45;;;;;;;;;;4976008;28;20057;-77
2021/07/18 09:11:22;;;;;;;5.40;1.35;;;;;;;;;;4984423;28;20084;-78
2021/07/18 09:13:59;;;;;;;2.55;1.27;;;;;;;;;;4983737;28;20043;-76
2021/07/18 09:16:31;;;;;;;70.40;8.23;;;;;;;;;;4986101;28;20056;-75
2021/07/18 09:19:17;;;;;;;25.05;3.97;;;;;;;;;;4975931;28;20547;-75
2021/07/18 09:21:50;;;;;;;13.50;2.63;;;;;;;;;;4966913;28;20141;-75
2021/07/18 09:24:23;;;;;;;6.80;1.92;;;;;;;;;;4966528;28;20057;-75
2021/07/18 09:27:13;;;;;;;7.35;1.70;;;;;;;;;;4964612;28;20062;-74
2021/07/18 09:29:42;;;;;;;5.88;1.42;;;;;;;;;;4979564;28;20053;-74
2021/07/18 09:32:12;;;;;;;5.05;1.90;;;;;;;;;;4984339;28;20145;-75
2021/07/18 09:34:40;;;;;;;6.68;1.50;;;;;;;;;;4983038;28;20559;-75
2021/07/18 09:37:14;;;;;;;15.55;2.00;;;;;;;;;;4983200;28;20133;-75
2021/07/18 09:39:47;;;;;;;34.20;4.28;;;;;;;;;;4969606;28;20053;-76
2021/07/18 09:42:27;;;;;;;3.97;1.52;;;;;;;;;;4965674;28;20262;-76
2021/07/18 09:44:54;;;;;;;2.97;1.80;;;;;;;;;;4964798;28;20210;-77
2021/07/18 09:47:22;;;;;;;6.38;1.52;;;;;;;;;;4969145;28;20101;-77
2021/07/18 09:49:49;;;;;;;5.75;1.48;;;;;;;;;;4983527;28;20156;-77
2021/07/18 09:52:18;;;;;;;3.03;1.40;;;;;;;;;;4984755;28;20406;-76
2021/07/18 09:54:46;;;;;;;7.20;1.60;;;;;;;;;;4985092;28;20057;-76
2021/07/18 09:57:27;;;;;;;5.72;1.63;;;;;;;;;;4982139;28;20042;-76
2021/07/18 09:59:56;;;;;;;5.90;1.38;;;;;;;;;;4965669;28;20560;-76
2021/07/18 10:02:24;;;;;;;5.40;1.88;;;;;;;;;;4966308;28;20051;-76
2021/07/18 10:04:51;;;;;;;5.50;1.50;;;;;;;;;;4965637;28;20058;-76
2021/07/18 10:07:20;;;;;;;5.80;2.10;;;;;;;;;;4970536;28;20053;-76
2021/07/18 10:09:48;;;;;;;3.03;1.25;;;;;;;;;;4986463;28;20068;-77
2021/07/18 10:12:15;;;;;;;9.55;1.63;;;;;;;;;;4988427;28;20665;-77
2021/07/18 10:14:42;;;;;;;2.45;1.13;;;;;;;;;;4983645;28;21123;-78
2021/07/18 10:17:10;;;;;;;2.63;1.05;;;;;;;;;;4984097;28;20499;-77
2021/07/18 10:19:39;;;;;;;4.78;1.60;;;;;;;;;;4983281;28;20708;-78
2021/07/18 10:22:06;;;;;;;4.25;1.38;;;;;;;;;;4990596;28;20046;-79
2021/07/18 10:24:34;;;;;;;4.38;1.27;;;;;;;;;;4988432;28;20101;-81
2021/07/18 10:29:57;;;;;;;2.95;1.67;;;;;;;;;;4962422;28;20046;-79
2021/07/18 10:32:26;;;;;;;6.18;1.98;;;;;;;;;;4969366;28;20141;-78
2021/07/18 10:34:54;;;;;;;2.65;1.13;;;;;;;;;;4963418;28;20748;-78
2021/07/18 10:37:22;;;;;;;7.20;1.23;;;;;;;;;;4958091;28;20754;-79
2021/07/18 10:39:53;;;;;;;4.85;1.38;;;;;;;;;;4968479;28;20078;-78
2021/07/18 10:42:34;;;;;;;5.13;1.70;;;;;;;;;;4964705;28;20755;-77
2021/07/18 10:45:19;;;;;;;11.88;1.50;;;;;;;;;;4961425;28;20134;-78
2021/07/18 10:51:00;;;;;;;4.88;1.27;;;;;;;;;;4962548;28;20078;-81
2021/07/18 10:53:31;;;;;;;5.30;2.13;;;;;;;;;;4960041;28;20174;-83
2021/07/18 10:56:01;;;;;;;5.50;1.63;;;;;;;;;;4948852;29;20055;-78
2021/07/18 10:58:40;;;;;;;4.35;1.85;;;;;;;;;;4956600;28;20129;-79
2021/07/18 11:01:10;;;;;;;4.05;2.03;;;;;;;;;;4968920;28;20133;-79
2021/07/18 11:03:41;;;;;;;4.28;2.00;;;;;;;;;;4969758;28;20047;-79
2021/07/18 11:06:25;;;;;;;5.38;1.73;;;;;;;;;;4969322;28;20638;-80
2021/07/18 11:09:12;;;;;;;4.07;1.70;;;;;;;;;;4971214;28;20495;-83
2021/07/18 11:11:44;;;;;;;6.97;1.95;;;;;;;;;;4965727;28;20546;-78
2021/07/18 11:14:21;;;;;;;3.33;1.70;;;;;;;;;;4957979;28;20054;-80
2021/07/18 11:16:56;;;;;;;4.40;1.83;;;;;;;;;;4967796;28;20117;-80
2021/07/18 11:19:39;;;;;;;6.63;1.95;;;;;;;;;;4969492;28;20050;-81
2021/07/18 11:22:11;;;;;;;6.32;2.40;;;;;;;;;;4969285;28;20503;-79
2021/07/18 11:24:53;;;;;;;6.10;2.58;;;;;;;;;;4970239;28;20108;-78
2021/07/18 11:27:29;;;;;;;5.55;2.55;;;;;;;;;;4971958;28;20117;-79
2021/07/18 11:29:57;;;;;;;6.35;2.53;;;;;;;;;;4968387;28;20078;-79
2021/07/18 11:32:26;;;;;;;7.63;3.08;;;;;;;;;;4962132;28;20054;-79
2021/07/18 11:34:53;;;;;;;5.80;3.25;;;;;;;;;;4961432;28;20075;-77
2021/07/18 11:37:24;;;;;;;6.10;2.95;;;;;;;;;;4961360;28;20556;-77
2021/07/18 11:40:12;;;;;;;7.35;2.47;;;;;;;;;;4968325;28;20050;-77
2021/07/18 11:42:39;;;;;;;7.45;2.60;;;;;;;;;;4969836;28;20133;-79
2021/07/18 11:45:11;;;;;;;5.63;2.63;;;;;;;;;;4969802;28;20051;-80
2021/07/18 11:47:39;;;;;;;8.80;2.85;;;;;;;;;;4966204;28;20047;-79
2021/07/18 11:50:08;;;;;;;9.07;2.67;;;;;;;;;;4964146;28;20133;-79
2021/07/18 11:52:40;;;;;;;5.07;2.45;;;;;;;;;;4965661;28;20480;-77
2021/07/18 11:55:09;;;;;;;7.00;2.70;;;;;;;;;;4953401;28;20138;-78
2021/07/18 11:57:40;;;;;;;9.52;3.22;;;;;;;;;;4953758;28;20089;-79
2021/07/18 12:00:07;;;;;;;9.25;2.67;;;;;;;;;;4964522;28;20576;-78
2021/07/18 12:02:35;;;;;;;4.35;2.83;;;;;;;;;;4961205;28;20050;-79
2021/07/18 12:05:07;;;;;;;6.95;3.47;;;;;;;;;;4962193;28;20055;-77
2021/07/18 12:07:37;;;;;;;4.72;2.65;;;;;;;;;;4966334;28;20126;-80
2021/07/18 12:10:05;;;;;;;6.10;2.92;;;;;;;;;;4965773;28;20130;-80
2021/07/18 12:12:34;;;;;;;8.63;3.25;;;;;;;;;;4964955;28;20460;-79
2021/07/18 12:15:01;;;;;;;8.10;3.35;;;;;;;;;;4972028;28;20554;-80
2021/07/18 12:17:28;;;;;;;8.20;2.72;;;;;;;;;;4972849;28;20051;-78
2021/07/18 12:19:55;;;;;;;9.27;3.20;;;;;;;;;;4961754;28;20041;-77
2021/07/18 12:22:22;;;;;;;7.22;4.03;;;;;;;;;;4960302;28;20737;-77
2021/07/18 12:24:54;;;;;;;7.30;3.20;;;;;;;;;;4961040;28;20061;-77
2021/07/18 12:27:23;;;;;;;6.97;3.10;;;;;;;;;;4977619;28;20054;-75
2021/07/18 12:29:58;;;;;;;8.43;3.63;;;;;;;;;;4961662;28;20169;-76
2021/07/18 12:32:27;;;;;;;5.57;3.38;;;;;;;;;;4960008;28;20051;-77
2021/07/18 12:34:57;;;;;;;9.00;3.72;;;;;;;;;;4962645;28;20667;-77
2021/07/18 12:37:29;;;;;;;6.90;3.67;;;;;;;;;;4947054;28;20129;-77
2021/07/18 12:40:00;;;;;;;10.25;3.67;;;;;;;;;;4958248;28;20039;-77
2021/07/18 12:42:31;;;;;;;4.50;2.97;;;;;;;;;;4964770;28;20050;-77
2021/07/18 12:45:01;;;;;;;10.85;4.20;;;;;;;;;;4968121;28;20126;-77
2021/07/18 12:47:32;;;;;;;6.47;3.65;;;;;;;;;;4950645;28;20475;-77
2021/07/18 12:50:07;;;;;;;12.40;2.88;;;;;;;;;;4965374;28;20134;-77
2021/07/18 12:52:35;;;;;;;9.85;3.17;;;;;;;;;;4957397;28;20051;-77
2021/07/18 12:55:15;;;;;;;5.30;3.03;;;;;;;;;;4956438;28;20047;-77
2021/07/18 12:57:43;;;;;;;8.82;3.63;;;;;;;;;;4948540;28;20057;-77
2021/07/18 13:00:13;;;;;;;7.28;3.45;;;;;;;;;;4959639;28;20129;-77
2021/07/18 13:02:40;;;;;;;5.40;2.58;;;;;;;;;;4961619;28;20137;-77
2021/07/18 13:05:09;;;;;;;9.85;3.10;;;;;;;;;;4958286;28;20643;-77
2021/07/18 13:07:38;;;;;;;8.95;3.00;;;;;;;;;;4950970;28;20482;-77
2021/07/18 13:10:08;;;;;;;5.93;2.70;;;;;;;;;;4963493;28;20078;-75
2021/07/18 13:12:36;;;;;;;7.28;2.65;;;;;;;;;;4960949;28;20419;-75
2021/07/18 13:15:17;;;;;;;11.73;3.10;;;;;;;;;;4957751;28;20124;-75
2021/07/18 13:17:58;;;;;;;6.65;2.53;;;;;;;;;;4953517;28;20133;-77
2021/07/18 13:20:32;;;;;;;6.53;2.88;;;;;;;;;;4965699;28;20130;-75
2021/07/18 13:23:08;;;;;;;4.28;2.40;;;;;;;;;;4958397;28;20124;-76
2021/07/18 13:25:42;;;;;;;6.85;2.70;;;;;;;;;;4955313;28;20135;-76
2021/07/18 13:28:10;;;;;;;9.52;3.10;;;;;;;;;;4954556;28;20106;-75
2021/07/18 13:30:39;;;;;;;7.07;3.35;;;;;;;;;;4965220;28;20055;-75
2021/07/18 13:33:11;;;;;;;9.13;3.53;;;;;;;;;;4961943;28;20051;-75
2021/07/18 13:35:42;;;;;;;9.60;3.15;;;;;;;;;;4962117;28;20074;-75
2021/07/18 13:38:19;;;;;;;8.73;3.67;;;;;;;;;;4958009;28;20583;-75
2021/07/18 13:40:48;;;;;;;5.97;3.03;;;;;;;;;;4965530;28;20126;-75
2021/07/18 13:43:19;;;;;;;6.35;3.30;;;;;;;;;;4965086;28;20051;-74
2021/07/18 13:45:46;;;;;;;7.13;3.25;;;;;;;;;;4964504;28;20108;-76
2021/07/18 13:48:16;;;;;;;8.70;3.67;;;;;;;;;;4961883;28;20164;-76
2021/07/18 13:50:43;;;;;;;8.45;3.28;;;;;;;;;;4959882;28;20134;-76
2021/07/18 13:53:11;;;;;;;6.32;3.05;;;;;;;;;;4960869;28;20055;-75
2021/07/18 13:55:39;;;;;;;5.93;2.92;;;;;;;;;;4953754;28;20050;-76
2021/07/18 13:58:07;;;;;;;8.30;3.63;;;;;;;;;;4949606;28;20047;-76
2021/07/18 14:00:35;;;;;;;6.28;3.53;;;;;;;;;;4969796;28;20126;-76
2021/07/18 14:03:03;;;;;;;12.48;4.57;;;;;;;;;;4971814;28;20046;-76
2021/07/18 14:05:30;;;;;;;7.43;3.17;;;;;;;;;;4970607;28;20055;-76
2021/07/18 14:07:57;;;;;;;8.57;3.03;;;;;;;;;;4962329;28;20062;-77
2021/07/18 14:10:25;;;;;;;8.95;2.55;;;;;;;;;;4972699;28;20522;-76
2021/07/18 14:12:52;;;;;;;12.60;3.58;;;;;;;;;;4970225;28;20055;-77
2021/07/18 14:15:20;;;;;;;10.05;3.28;;;;;;;;;;4964110;28;20051;-77
2021/07/18 14:17:48;;;;;;;11.00;3.58;;;;;;;;;;4958127;28;20147;-77
2021/07/18 14:20:16;;;;;;;7.57;3.17;;;;;;;;;;4972566;28;20053;-77
2021/07/18 14:22:45;;;;;;;8.48;3.10;;;;;;;;;;4973065;28;20125;-76
2021/07/18 14:25:13;;;;;;;9.90;3.40;;;;;;;;;;4968479;28;20061;-76
2021/07/18 14:27:42;;;;;;;8.65;3.10;;;;;;;;;;4960531;28;20047;-77
2021/07/18 14:30:16;;;;;;;12.55;3.60;;;;;;;;;;4964967;28;20141;-77
2021/07/18 14:32:44;;;;;;;8.23;3.27;;;;;;;;;;4973254;28;20074;-77
2021/07/18 14:35:12;;;;;;;10.05;3.03;;;;;;;;;;4962480;28;20126;-77
2021/07/18 14:37:41;;;;;;;7.30;2.70;;;;;;;;;;4956926;28;20069;-77
2021/07/18 14:40:09;;;;;;;9.85;2.90;;;;;;;;;;4955103;28;20047;-77
2021/07/18 14:42:40;;;;;;;8.40;3.13;;;;;;;;;;4954143;28;20081;-77
2021/07/18 14:45:09;;;;;;;7.50;2.60;;;;;;;;;;4971876;28;20133;-76
2021/07/18 14:47:37;;;;;;;6.07;2.63;;;;;;;;;;4946082;28;20130;-77
2021/07/18 14:50:05;;;;;;;10.80;2.60;;;;;;;;;;4961224;28;20101;-77
2021/07/18 14:52:32;;;;;;;6.45;3.05;;;;;;;;;;4963532;28;20607;-77
2021/07/18 14:54:59;;;;;;;12.68;2.30;;;;;;;;;;4966574;28;20062;-77
2021/07/18 14:57:28;;;;;;;13.10;2.95;;;;;;;;;;4946474;28;20051;-77
2021/07/18 14:59:56;;;;;;;3.78;2.10;;;;;;;;;;4964710;28;20050;-77